Time;durP1;ratioP1;P1;durP2;ratioP2;P2;SDS_P1;SDS_P2;PMS_P1;PMS_P2;Temp;Humidity;BMP_temperature;BMP_pressure;BME280_temperature;BME280_humidity;BME280_pressure;Samples;Min_cycle;Max_cycle;Signal;HPM_P1;HPM_P2
2022/02/07 00:01:42;;;;;;;5.10;1.52;;;;;;;;;;5094178;28;20035;-70
2022/02/07 00:04:10;;;;;;;6.00;1.65;;;;;;;;;;5077155;28;20371;-70
2022/02/07 00:06:36;;;;;;;7.43;1.50;;;;;;;;;;5094202;28;20028;-70
2022/02/07 00:09:03;;;;;;;7.68;1.63;;;;;;;;;;5095116;28;20126;-70
2022/02/07 00:11:29;;;;;;;9.57;1.88;;;;;;;;;;5096163;28;20402;-70
2022/02/07 00:13:55;;;;;;;9.40;1.58;;;;;;;;;;5095483;28;20480;-70
2022/02/07 00:16:21;;;;;;;5.95;1.80;;;;;;;;;;5091657;28;20031;-69
2022/02/07 00:18:47;;;;;;;6.95;1.55;;;;;;;;;;5093995;28;20089;-69
2022/02/07 00:21:13;;;;;;;9.93;1.50;;;;;;;;;;5092744;28;20024;-70
2022/02/07 00:23:39;;;;;;;9.48;1.40;;;;;;;;;;5092505;28;20093;-70
2022/02/07 00:26:05;;;;;;;12.50;1.73;;;;;;;;;;5093458;28;20028;-69
2022/02/07 00:28:31;;;;;;;5.43;1.27;;;;;;;;;;5094062;28;20089;-70
2022/02/07 00:30:57;;;;;;;5.57;1.40;;;;;;;;;;5076384;28;20063;-69
2022/02/07 00:33:23;;;;;;;6.43;1.40;;;;;;;;;;5090348;28;20027;-70
2022/02/07 00:35:49;;;;;;;9.43;1.10;;;;;;;;;;5076236;28;20370;-70
2022/02/07 00:38:19;;;;;;;4.35;1.38;;;;;;;;;;5090314;28;20107;-69
2022/02/07 00:48:15;;;;;;;4.55;1.35;;;;;;;;;;5090204;28;20028;-70
2022/02/07 00:50:42;;;;;;;14.63;1.33;;;;;;;;;;5094176;28;20021;-70
2022/02/07 00:53:11;;;;;;;3.53;1.33;;;;;;;;;;5090101;28;20035;-70
2022/02/07 00:55:37;;;;;;;4.70;1.40;;;;;;;;;;5094250;28;20454;-70
2022/02/07 00:58:03;;;;;;;3.88;1.02;;;;;;;;;;5092930;28;20471;-69
2022/02/07 01:00:29;;;;;;;4.68;1.20;;;;;;;;;;5093864;28;20108;-69
2022/02/07 01:02:55;;;;;;;5.95;1.23;;;;;;;;;;5093058;28;20360;-70
2022/02/07 01:05:21;;;;;;;8.07;1.48;;;;;;;;;;5093769;28;20491;-69
2022/02/07 01:07:50;;;;;;;3.20;1.10;;;;;;;;;;5071965;28;20059;-69
2022/02/07 01:10:21;;;;;;;9.05;1.35;;;;;;;;;;5093905;28;20483;-70
2022/02/07 01:15:44;;;;;;;4.07;1.15;;;;;;;;;;5093877;28;20070;-69
2022/02/07 01:48:28;;;;;;;5.75;1.38;;;;;;;;;;5089188;28;20035;-71
2022/02/07 01:55:54;;;;;;;6.60;1.33;;;;;;;;;;5093635;28;20119;-68
2022/02/07 01:58:21;;;;;;;4.70;1.33;;;;;;;;;;5092344;28;20102;-68
2022/02/07 02:00:47;;;;;;;7.43;1.70;;;;;;;;;;5093046;28;20124;-69
2022/02/07 02:03:13;;;;;;;5.55;1.77;;;;;;;;;;5071127;28;20028;-69
2022/02/07 02:05:39;;;;;;;6.40;1.67;;;;;;;;;;5075008;28;20482;-69
2022/02/07 02:08:11;;;;;;;5.43;1.42;;;;;;;;;;5088993;28;20036;-69
2022/02/07 02:10:44;;;;;;;6.30;1.45;;;;;;;;;;5074787;28;20053;-69
2022/02/07 02:13:11;;;;;;;19.35;1.73;;;;;;;;;;5091832;28;20024;-69
2022/02/07 02:15:45;;;;;;;5.75;1.42;;;;;;;;;;5092519;28;20020;-69
2022/02/07 02:37:26;;;;;;;6.15;1.70;;;;;;;;;;5091568;28;20150;-69
2022/02/07 02:45:31;;;;;;;7.38;1.77;;;;;;;;;;5092702;28;20047;-68
2022/02/07 02:48:00;;;;;;;4.95;1.35;;;;;;;;;;5088439;28;20024;-68
2022/02/07 02:50:34;;;;;;;6.95;1.65;;;;;;;;;;5095236;28;20059;-68
2022/02/07 02:53:02;;;;;;;6.53;1.25;;;;;;;;;;5092173;28;20031;-68
2022/02/07 02:55:28;;;;;;;5.93;1.40;;;;;;;;;;5095946;28;20127;-68
2022/02/07 02:57:54;;;;;;;6.90;1.40;;;;;;;;;;5093987;28;20442;-68
2022/02/07 03:00:20;;;;;;;5.90;1.48;;;;;;;;;;5096034;28;20040;-68
2022/02/07 03:02:46;;;;;;;7.45;1.42;;;;;;;;;;5093722;28;20024;-68
2022/02/07 03:05:14;;;;;;;10.93;1.35;;;;;;;;;;5077535;28;20357;-68
2022/02/07 03:07:40;;;;;;;3.47;1.15;;;;;;;;;;5094550;28;20036;-68
2022/02/07 03:10:07;;;;;;;5.65;1.70;;;;;;;;;;5095744;28;20031;-68
2022/02/07 03:12:42;;;;;;;8.02;1.67;;;;;;;;;;5098980;28;20020;-67
2022/02/07 03:17:53;;;;;;;6.07;1.88;;;;;;;;;;5091946;28;20063;-68
2022/02/07 03:20:20;;;;;;;4.45;1.42;;;;;;;;;;5095831;28;20051;-68
2022/02/07 03:22:46;;;;;;;4.50;1.33;;;;;;;;;;5094928;28;20481;-69
2022/02/07 03:25:12;;;;;;;7.90;1.70;;;;;;;;;;5095734;28;20103;-69
2022/02/07 03:27:38;;;;;;;7.32;1.40;;;;;;;;;;5091709;28;20115;-69
2022/02/07 03:30:04;;;;;;;8.70;1.60;;;;;;;;;;5077630;28;20111;-68
2022/02/07 03:32:30;;;;;;;4.55;1.60;;;;;;;;;;5094006;28;20032;-69
2022/02/07 03:34:56;;;;;;;6.00;1.77;;;;;;;;;;5095779;28;20130;-68
2022/02/07 03:37:22;;;;;;;5.95;1.50;;;;;;;;;;5091429;28;20469;-69
2022/02/07 03:39:48;;;;;;;8.70;1.40;;;;;;;;;;5095726;28;20051;-69
2022/02/07 03:42:14;;;;;;;6.28;1.63;;;;;;;;;;5073144;28;20032;-68
2022/02/07 03:44:40;;;;;;;6.00;1.52;;;;;;;;;;5095338;28;20157;-68
2022/02/07 03:47:06;;;;;;;4.55;1.60;;;;;;;;;;5091122;28;20028;-67
2022/02/07 03:49:32;;;;;;;5.07;1.67;;;;;;;;;;5095180;28;20483;-68
2022/02/07 03:51:58;;;;;;;4.18;1.48;;;;;;;;;;5091301;28;20525;-68
2022/02/07 03:54:24;;;;;;;3.88;1.38;;;;;;;;;;5095139;28;20032;-68
2022/02/07 03:56:50;;;;;;;6.60;1.92;;;;;;;;;;5094398;28;20020;-68
2022/02/07 03:59:16;;;;;;;4.97;1.52;;;;;;;;;;5095218;28;20039;-68
2022/02/07 04:01:43;;;;;;;16.20;1.33;;;;;;;;;;5093998;28;20166;-67
2022/02/07 04:04:09;;;;;;;7.50;1.67;;;;;;;;;;5094893;28;20115;-68
2022/02/07 04:06:35;;;;;;;6.60;1.70;;;;;;;;;;5091122;28;20108;-68
2022/02/07 04:09:06;;;;;;;6.25;1.80;;;;;;;;;;5094814;28;20039;-68
2022/02/07 04:11:42;;;;;;;5.68;1.60;;;;;;;;;;5090318;28;20012;-68
2022/02/07 04:14:08;;;;;;;6.30;1.45;;;;;;;;;;5095031;28;20028;-69
2022/02/07 04:16:38;;;;;;;6.68;1.80;;;;;;;;;;5090423;28;20026;-68
2022/02/07 04:19:30;;;;;;;5.90;1.50;;;;;;;;;;5094926;28;20020;-69
2022/02/07 04:21:54;;;;;;;7.88;1.92;;;;;;;;;;5092967;28;20059;-68
2022/02/07 04:24:20;;;;;;;5.85;1.50;;;;;;;;;;5094141;28;20024;-68
2022/02/07 04:26:46;;;;;;;4.53;1.40;;;;;;;;;;5093503;28;20039;-69
2022/02/07 04:29:12;;;;;;;5.22;1.33;;;;;;;;;;5094365;28;20525;-68
2022/02/07 04:31:38;;;;;;;4.63;1.63;;;;;;;;;;5093504;28;20041;-69
2022/02/07 04:34:04;;;;;;;4.70;1.63;;;;;;;;;;5094339;28;20111;-69
2022/02/07 04:36:30;;;;;;;8.23;1.83;;;;;;;;;;5090429;28;20435;-68
2022/02/07 04:38:56;;;;;;;6.50;1.83;;;;;;;;;;5094377;28;20383;-69
2022/02/07 04:41:25;;;;;;;6.80;1.70;;;;;;;;;;5091439;28;20035;-68
2022/02/07 04:43:57;;;;;;;10.77;1.65;;;;;;;;;;5075923;28;20024;-68
2022/02/07 04:46:58;;;;;;;9.07;1.73;;;;;;;;;;5093360;28;20021;-68
2022/02/07 04:57:47;;;;;;;15.10;2.20;;;;;;;;;;5093163;28;20039;-69
2022/02/07 05:02:54;;;;;;;11.98;1.83;;;;;;;;;;5093078;28;20028;-68
2022/02/07 05:13:43;;;;;;;5.10;1.73;;;;;;;;;;5094003;28;20020;-67
2022/02/07 05:13:47;;;;;;;9.25;2.05;;;;;;;;;;5092319;28;20034;-68
2022/02/07 05:16:23;;;;;;;14.38;2.50;;;;;;;;;;5092644;28;20396;-68
2022/02/07 05:18:53;;;;;;;10.07;1.83;;;;;;;;;;5093640;28;20351;-67
2022/02/07 05:21:20;;;;;;;16.00;1.83;;;;;;;;;;5092733;28;20134;-67
2022/02/07 05:23:46;;;;;;;12.20;1.50;;;;;;;;;;5092966;28;20031;-67
2022/02/07 05:26:12;;;;;;;12.77;1.98;;;;;;;;;;5073908;28;20111;-68
2022/02/07 05:28:38;;;;;;;8.05;1.73;;;;;;;;;;5091044;28;20079;-68
2022/02/07 05:31:04;;;;;;;9.65;2.17;;;;;;;;;;5092708;28;20024;-69
2022/02/07 05:33:30;;;;;;;8.45;1.98;;;;;;;;;;5090142;28;20027;-68
2022/02/07 05:35:56;;;;;;;8.82;1.92;;;;;;;;;;5093487;28;20028;-69
2022/02/07 05:38:22;;;;;;;7.03;1.75;;;;;;;;;;5092007;28;20036;-68
2022/02/07 05:40:59;;;;;;;11.45;2.03;;;;;;;;;;5093132;28;20050;-69
2022/02/07 05:43:25;;;;;;;9.40;2.53;;;;;;;;;;5081190;28;20020;-69
2022/02/07 05:45:51;;;;;;;7.63;1.80;;;;;;;;;;5093419;28;20016;-69
2022/02/07 05:48:17;;;;;;;15.38;1.90;;;;;;;;;;5089721;28;20630;-68
2022/02/07 05:50:43;;;;;;;9.95;1.70;;;;;;;;;;5093255;28;20028;-69
2022/02/07 05:53:09;;;;;;;8.70;1.77;;;;;;;;;;5091934;28;20047;-69
2022/02/07 05:55:35;;;;;;;6.32;2.08;;;;;;;;;;5093097;28;20046;-69
2022/02/07 05:58:01;;;;;;;6.32;1.70;;;;;;;;;;5073529;28;20032;-69
2022/02/07 06:00:32;;;;;;;7.07;1.65;;;;;;;;;;5093163;28;20468;-69
2022/02/07 06:02:59;;;;;;;7.20;1.63;;;;;;;;;;5091475;28;20493;-68
2022/02/07 06:05:25;;;;;;;5.15;1.38;;;;;;;;;;5092602;28;20472;-69
2022/02/07 06:07:51;;;;;;;8.40;2.17;;;;;;;;;;5086837;28;20034;-69
2022/02/07 06:10:17;;;;;;;10.57;2.45;;;;;;;;;;5092824;28;20070;-69
2022/02/07 06:12:45;;;;;;;12.93;1.92;;;;;;;;;;5092555;28;20023;-70
2022/02/07 06:15:11;;;;;;;15.40;2.53;;;;;;;;;;5074854;28;20024;-69
2022/02/07 06:17:38;;;;;;;8.05;1.90;;;;;;;;;;5091614;28;20020;-69
2022/02/07 06:20:04;;;;;;;7.95;2.08;;;;;;;;;;5093134;28;20043;-70
2022/02/07 06:22:30;;;;;;;7.15;1.85;;;;;;;;;;5089316;28;20044;-70
2022/02/07 06:24:57;;;;;;;5.30;2.00;;;;;;;;;;5092480;28;20046;-70
2022/02/07 06:27:23;;;;;;;8.82;2.42;;;;;;;;;;5091958;28;20040;-71
2022/02/07 06:29:49;;;;;;;6.57;1.67;;;;;;;;;;5090261;28;20052;-71
2022/02/07 06:32:15;;;;;;;9.02;2.03;;;;;;;;;;5088544;28;20106;-70
2022/02/07 06:34:41;;;;;;;5.72;1.60;;;;;;;;;;5088182;28;20445;-69
2022/02/07 06:37:08;;;;;;;5.50;1.33;;;;;;;;;;5087849;28;20452;-69
2022/02/07 06:39:34;;;;;;;9.13;2.03;;;;;;;;;;5092193;28;20035;-69
2022/02/07 06:42:00;;;;;;;9.13;1.40;;;;;;;;;;5090430;28;20016;-70
2022/02/07 06:44:27;;;;;;;5.97;1.75;;;;;;;;;;5076110;28;20031;-68
2022/02/07 06:46:53;;;;;;;6.43;1.58;;;;;;;;;;5088343;28;20470;-69
2022/02/07 06:49:19;;;;;;;7.15;1.67;;;;;;;;;;5076283;28;20043;-69
2022/02/07 06:51:45;;;;;;;6.68;1.50;;;;;;;;;;5070101;28;20518;-66
2022/02/07 06:54:11;;;;;;;7.68;1.95;;;;;;;;;;5085525;28;20573;-66
2022/02/07 06:56:37;;;;;;;6.95;1.90;;;;;;;;;;5088303;28;20040;-66
2022/02/07 06:59:03;;;;;;;12.93;2.45;;;;;;;;;;5077538;28;20490;-66
2022/02/07 07:01:30;;;;;;;14.35;2.00;;;;;;;;;;5090462;28;20610;-66
2022/02/07 07:03:56;;;;;;;11.80;1.80;;;;;;;;;;5092257;28;20024;-66
2022/02/07 07:06:22;;;;;;;8.30;2.22;;;;;;;;;;5088717;28;21884;-66
2022/02/07 07:08:54;;;;;;;8.48;1.60;;;;;;;;;;5090907;28;20038;-66
2022/02/07 07:11:23;;;;;;;15.95;2.38;;;;;;;;;;5077231;28;20011;-66
2022/02/07 07:13:54;;;;;;;9.93;2.22;;;;;;;;;;5092087;28;20038;-67
2022/02/07 07:18:49;;;;;;;6.68;1.48;;;;;;;;;;5090324;28;20097;-67
2022/02/07 07:21:15;;;;;;;12.77;2.03;;;;;;;;;;5089151;28;20036;-70
2022/02/07 07:23:42;;;;;;;8.20;1.92;;;;;;;;;;5091974;28;20028;-76
2022/02/07 07:26:08;;;;;;;12.88;1.95;;;;;;;;;;5091106;28;20060;-73
2022/02/07 07:28:35;;;;;;;18.83;2.25;;;;;;;;;;5072088;28;20048;-69
2022/02/07 07:31:03;;;;;;;11.60;2.08;;;;;;;;;;5091930;28;20016;-69
2022/02/07 07:33:30;;;;;;;11.57;2.25;;;;;;;;;;5070655;28;20532;-70
2022/02/07 07:35:57;;;;;;;21.40;1.98;;;;;;;;;;5094387;28;20030;-69
2022/02/07 07:38:23;;;;;;;14.80;2.15;;;;;;;;;;5093154;28;20092;-73
2022/02/07 07:40:49;;;;;;;16.10;2.00;;;;;;;;;;5096311;28;20076;-73
2022/02/07 07:43:16;;;;;;;10.38;2.10;;;;;;;;;;5065685;28;20489;-74
2022/02/07 07:46:00;;;;;;;13.93;2.25;;;;;;;;;;5096102;28;20024;-72
2022/02/07 07:48:27;;;;;;;8.60;2.00;;;;;;;;;;5076842;28;20043;-74
2022/02/07 07:50:57;;;;;;;10.48;2.15;;;;;;;;;;5071291;28;20471;-75
2022/02/07 08:04:05;;;;;;;10.00;2.10;;;;;;;;;;5088906;28;20546;-69
2022/02/07 08:06:38;;;;;;;12.75;2.25;;;;;;;;;;5091050;28;20055;-70
2022/02/07 08:11:35;;;;;;;10.18;1.95;;;;;;;;;;5092184;28;20111;-69
2022/02/07 08:14:02;;;;;;;16.08;2.72;;;;;;;;;;5088851;28;20509;-69
2022/02/07 08:16:28;;;;;;;9.68;1.85;;;;;;;;;;5090479;28;20028;-69
2022/02/07 08:18:59;;;;;;;6.78;1.98;;;;;;;;;;5072303;28;20040;-68
2022/02/07 08:21:26;;;;;;;7.63;1.80;;;;;;;;;;5073910;28;20039;-68
2022/02/07 08:23:52;;;;;;;10.98;2.40;;;;;;;;;;5094055;28;20482;-67
2022/02/07 08:26:18;;;;;;;10.40;2.05;;;;;;;;;;5094237;28;20024;-69
2022/02/07 08:28:44;;;;;;;10.27;2.30;;;;;;;;;;5094118;28;20048;-68
2022/02/07 08:31:11;;;;;;;7.18;2.03;;;;;;;;;;5094271;28;20502;-68
2022/02/07 08:33:38;;;;;;;9.15;2.00;;;;;;;;;;5094245;28;20043;-68
2022/02/07 08:36:05;;;;;;;11.75;2.22;;;;;;;;;;5078243;28;20479;-67
2022/02/07 08:38:32;;;;;;;8.02;1.98;;;;;;;;;;5078755;28;20032;-67
2022/02/07 08:40:58;;;;;;;9.65;2.08;;;;;;;;;;5086250;28;20069;-65
2022/02/07 08:43:24;;;;;;;16.67;1.98;;;;;;;;;;5093917;28;20364;-65
2022/02/07 08:48:26;;;;;;;12.00;2.67;;;;;;;;;;5530978;23;20046;-67
2022/02/07 08:50:54;;;;;;;13.77;2.47;;;;;;;;;;4954973;28;20066;-65
2022/02/07 08:53:23;;;;;;;10.15;2.00;;;;;;;;;;4978012;28;20026;-63
2022/02/07 08:55:52;;;;;;;12.10;2.28;;;;;;;;;;4974709;28;20023;-64
2022/02/07 08:58:21;;;;;;;16.05;2.40;;;;;;;;;;4975792;28;20117;-66
2022/02/07 09:03:29;;;;;;;20.38;2.47;;;;;;;;;;4975777;28;20633;-74
2022/02/07 09:11:13;;;;;;;12.85;2.25;;;;;;;;;;4975676;28;20038;-72
2022/02/07 09:13:41;;;;;;;14.57;2.92;;;;;;;;;;4958063;28;20026;-69
2022/02/07 09:18:37;;;;;;;13.32;1.85;;;;;;;;;;4975249;28;20362;-68
2022/02/07 09:21:06;;;;;;;13.38;2.35;;;;;;;;;;4974263;28;20082;-68
2022/02/07 09:23:32;;;;;;;8.02;2.22;;;;;;;;;;4980797;28;20450;-69
2022/02/07 09:25:58;;;;;;;16.98;2.20;;;;;;;;;;4977440;28;20094;-69
2022/02/07 09:28:24;;;;;;;11.52;2.40;;;;;;;;;;4969400;28;20129;-68
2022/02/07 09:30:53;;;;;;;6.20;1.88;;;;;;;;;;4974110;28;20393;-68
2022/02/07 09:33:19;;;;;;;11.27;1.90;;;;;;;;;;4974747;28;20057;-69
2022/02/07 09:35:45;;;;;;;8.18;2.05;;;;;;;;;;4974376;28;20019;-68
2022/02/07 09:38:11;;;;;;;12.82;2.47;;;;;;;;;;4974584;28;20030;-68
2022/02/07 09:40:38;;;;;;;9.38;2.35;;;;;;;;;;4973969;28;20031;-68
2022/02/07 09:43:05;;;;;;;9.43;2.53;;;;;;;;;;4980496;28;20393;-68
2022/02/07 09:45:37;;;;;;;6.78;2.08;;;;;;;;;;4974166;28;20027;-68
2022/02/07 09:48:08;;;;;;;5.10;1.77;;;;;;;;;;4974205;28;20026;-67
2022/02/07 09:50:35;;;;;;;9.32;1.92;;;;;;;;;;4992305;28;20078;-67
2022/02/07 09:53:01;;;;;;;11.23;2.15;;;;;;;;;;4993425;28;20027;-67
2022/02/07 09:55:28;;;;;;;9.02;1.73;;;;;;;;;;4993399;28;20034;-67
2022/02/07 09:57:54;;;;;;;10.70;2.00;;;;;;;;;;4992432;28;20022;-73
2022/02/07 10:00:25;;;;;;;12.82;2.25;;;;;;;;;;4992854;28;20444;-67
2022/02/07 10:03:06;;;;;;;12.20;2.33;;;;;;;;;;4993467;28;20058;-67
2022/02/07 10:05:43;;;;;;;9.02;1.60;;;;;;;;;;4992060;28;20113;-68
2022/02/07 10:08:19;;;;;;;5.78;1.27;;;;;;;;;;4994847;28;20030;-73
2022/02/07 10:11:16;;;;;;;16.77;2.33;;;;;;;;;;4993640;28;20038;-70
2022/02/07 10:19:10;;;;;;;8.07;2.13;;;;;;;;;;4993170;28;20034;-68
2022/02/07 10:38:43;;;;;;;9.75;2.20;;;;;;;;;;4992758;28;20054;-68
2022/02/07 10:41:27;;;;;;;9.82;2.13;;;;;;;;;;4973109;28;20027;-71
2022/02/07 10:44:08;;;;;;;9.77;1.80;;;;;;;;;;4974659;28;20473;-70
2022/02/07 10:46:36;;;;;;;4.75;1.60;;;;;;;;;;4973878;28;20026;-67
2022/02/07 10:49:07;;;;;;;7.80;1.60;;;;;;;;;;4959799;28;20429;-68
2022/02/07 10:51:33;;;;;;;10.25;2.00;;;;;;;;;;4973422;28;20027;-67
2022/02/07 10:53:59;;;;;;;11.68;2.17;;;;;;;;;;4973748;28;20035;-68
2022/02/07 10:56:34;;;;;;;10.05;1.80;;;;;;;;;;4984740;28;20571;-68
2022/02/07 10:59:05;;;;;;;8.20;1.70;;;;;;;;;;4996601;28;20101;-67
2022/02/07 11:04:14;;;;;;;11.13;2.00;;;;;;;;;;4993210;28;20495;-68
2022/02/07 11:06:43;;;;;;;11.52;1.90;;;;;;;;;;4992698;28;20125;-67
2022/02/07 11:09:22;;;;;;;15.13;2.20;;;;;;;;;;4992503;28;20489;-67
2022/02/07 11:12:07;;;;;;;6.40;1.77;;;;;;;;;;4994943;28;20664;-67
2022/02/07 11:19:58;;;;;;;16.15;2.20;;;;;;;;;;4996748;28;20166;-67
2022/02/07 11:22:40;;;;;;;18.15;2.00;;;;;;;;;;4996279;28;20050;-70
2022/02/07 11:27:54;;;;;;;10.82;1.83;;;;;;;;;;4995641;28;20030;-69
2022/02/07 11:30:41;;;;;;;22.13;2.47;;;;;;;;;;4994999;28;20022;-69
2022/02/07 11:33:08;;;;;;;12.10;1.90;;;;;;;;;;4994300;28;20027;-69
2022/02/07 11:35:49;;;;;;;19.08;2.03;;;;;;;;;;4989387;28;20046;-69
2022/02/07 11:38:17;;;;;;;13.32;1.70;;;;;;;;;;4984363;28;20042;-69
2022/02/07 11:40:55;;;;;;;15.65;1.80;;;;;;;;;;4979393;28;20030;-69
2022/02/07 11:43:23;;;;;;;13.35;2.17;;;;;;;;;;4976725;28;20026;-69
2022/02/07 11:45:50;;;;;;;16.27;1.83;;;;;;;;;;4984928;28;20027;-68
2022/02/07 11:48:18;;;;;;;18.45;1.90;;;;;;;;;;4994288;28;20031;-67
2022/02/07 11:50:45;;;;;;;14.20;2.08;;;;;;;;;;4959032;28;20089;-69
2022/02/07 11:53:12;;;;;;;24.48;2.50;;;;;;;;;;4976438;28;20019;-68
2022/02/07 11:55:42;;;;;;;19.88;2.13;;;;;;;;;;4976570;28;20031;-69
2022/02/07 11:58:14;;;;;;;15.60;1.70;;;;;;;;;;4979993;28;20026;-68
2022/02/07 12:00:47;;;;;;;14.65;1.73;;;;;;;;;;4988558;28;20129;-69
2022/02/07 12:03:15;;;;;;;18.00;1.95;;;;;;;;;;4952656;28;20051;-69
2022/02/07 12:05:45;;;;;;;16.98;2.33;;;;;;;;;;4960390;28;20522;-69
2022/02/07 12:08:17;;;;;;;13.30;1.67;;;;;;;;;;4954002;28;20034;-68
2022/02/07 12:10:59;;;;;;;22.65;2.25;;;;;;;;;;4966888;28;20039;-68
2022/02/07 12:13:28;;;;;;;11.23;2.22;;;;;;;;;;4950516;28;20031;-68
2022/02/07 12:15:56;;;;;;;9.93;2.03;;;;;;;;;;4948441;29;20501;-70
2022/02/07 12:18:24;;;;;;;12.18;1.73;;;;;;;;;;4970268;28;20018;-69
2022/02/07 12:20:55;;;;;;;16.40;2.20;;;;;;;;;;4970899;28;20031;-68
2022/02/07 12:23:22;;;;;;;8.63;1.88;;;;;;;;;;4967872;28;20031;-69
2022/02/07 12:25:57;;;;;;;8.18;1.77;;;;;;;;;;4972797;28;20031;-69
2022/02/07 12:31:03;;;;;;;9.90;1.77;;;;;;;;;;4972949;28;20118;-69
2022/02/07 12:33:32;;;;;;;7.38;1.83;;;;;;;;;;4972122;28;20018;-70
2022/02/07 12:36:00;;;;;;;9.02;1.92;;;;;;;;;;4942913;28;20027;-70
2022/02/07 12:38:28;;;;;;;7.13;1.60;;;;;;;;;;4978527;28;20018;-76
2022/02/07 12:40:54;;;;;;;14.93;1.83;;;;;;;;;;4946909;29;20078;-69
2022/02/07 12:43:21;;;;;;;8.77;1.60;;;;;;;;;;4967620;28;20533;-68
2022/02/07 12:45:47;;;;;;;14.52;1.88;;;;;;;;;;4965832;28;20019;-68
2022/02/07 12:48:16;;;;;;;10.93;2.03;;;;;;;;;;4961614;28;20117;-69
2022/02/07 12:50:47;;;;;;;8.02;1.50;;;;;;;;;;4980383;28;20026;-70
2022/02/07 12:53:16;;;;;;;15.45;1.52;;;;;;;;;;4983105;28;20022;-69
2022/02/07 12:55:44;;;;;;;13.38;1.63;;;;;;;;;;4981633;28;20046;-70
2022/02/07 12:58:12;;;;;;;13.60;1.70;;;;;;;;;;4990235;28;20528;-69
2022/02/07 13:00:38;;;;;;;8.40;1.80;;;;;;;;;;4975750;28;20477;-69
2022/02/07 13:03:04;;;;;;;14.38;2.63;;;;;;;;;;4984385;28;20254;-69
2022/02/07 13:05:31;;;;;;;8.15;1.70;;;;;;;;;;4980594;28;20030;-69
2022/02/07 13:08:00;;;;;;;12.00;1.98;;;;;;;;;;4994424;28;20162;-69
2022/02/07 13:10:33;;;;;;;8.15;1.80;;;;;;;;;;4994686;28;20018;-69
2022/02/07 13:15:34;;;;;;;6.88;1.77;;;;;;;;;;4994932;28;20077;-69
2022/02/07 13:18:04;;;;;;;7.37;1.50;;;;;;;;;;4993957;28;20035;-69
2022/02/07 13:20:30;;;;;;;9.48;1.58;;;;;;;;;;4994567;28;20030;-69
2022/02/07 13:23:05;;;;;;;7.53;1.77;;;;;;;;;;4994023;28;20452;-69
2022/02/07 13:25:41;;;;;;;8.25;1.45;;;;;;;;;;4994648;28;20030;-71
2022/02/07 13:28:10;;;;;;;9.85;1.52;;;;;;;;;;4994496;28;20065;-70
2022/02/07 13:30:39;;;;;;;8.18;1.58;;;;;;;;;;4994320;28;20477;-70
2022/02/07 13:33:05;;;;;;;9.63;1.38;;;;;;;;;;4993774;28;20034;-71
2022/02/07 13:35:43;;;;;;;9.07;1.55;;;;;;;;;;4987909;28;20028;-70
2022/02/07 13:38:10;;;;;;;6.13;1.30;;;;;;;;;;4994187;28;20121;-68
2022/02/07 13:40:40;;;;;;;6.53;1.50;;;;;;;;;;4994081;28;20034;-68
2022/02/07 13:43:09;;;;;;;6.45;1.48;;;;;;;;;;4992474;28;20445;-68
2022/02/07 13:45:35;;;;;;;10.23;1.40;;;;;;;;;;4992545;28;20134;-71
2022/02/07 13:48:02;;;;;;;5.43;1.27;;;;;;;;;;4993950;28;20541;-69
2022/02/07 13:50:28;;;;;;;14.20;1.38;;;;;;;;;;4973545;28;20442;-69
2022/02/07 13:52:55;;;;;;;6.18;1.35;;;;;;;;;;4974268;28;20481;-70
2022/02/07 13:55:24;;;;;;;6.63;1.33;;;;;;;;;;4974577;28;20138;-71
2022/02/07 13:57:55;;;;;;;8.68;1.58;;;;;;;;;;4958983;28;20030;-71
2022/02/07 14:00:22;;;;;;;6.28;1.42;;;;;;;;;;4956765;28;20468;-70
2022/02/07 14:02:48;;;;;;;8.75;1.73;;;;;;;;;;4956963;28;20430;-69
2022/02/07 14:05:14;;;;;;;9.18;1.40;;;;;;;;;;4974306;28;20035;-70
2022/02/07 14:07:55;;;;;;;8.32;1.50;;;;;;;;;;4973851;28;20039;-70
2022/02/07 14:10:22;;;;;;;10.48;1.60;;;;;;;;;;4965052;28;20441;-71
2022/02/07 14:12:51;;;;;;;6.53;1.63;;;;;;;;;;4974096;28;20482;-68
2022/02/07 14:15:17;;;;;;;7.20;1.38;;;;;;;;;;4973353;28;20651;-69
2022/02/07 14:17:45;;;;;;;10.40;1.50;;;;;;;;;;4968317;28;20035;-69
2022/02/07 14:20:17;;;;;;;13.57;1.70;;;;;;;;;;4963694;28;20030;-69
2022/02/07 14:22:43;;;;;;;8.57;1.50;;;;;;;;;;4964409;28;20514;-68
2022/02/07 14:25:11;;;;;;;11.63;1.80;;;;;;;;;;4944826;28;20046;-69
2022/02/07 14:27:37;;;;;;;12.85;2.35;;;;;;;;;;4967484;28;20035;-69
2022/02/07 14:30:03;;;;;;;9.88;1.67;;;;;;;;;;4964815;28;20030;-68
2022/02/07 14:32:29;;;;;;;7.82;1.60;;;;;;;;;;4968297;28;20030;-69
2022/02/07 14:34:59;;;;;;;13.18;1.83;;;;;;;;;;4971576;28;20027;-69
2022/02/07 14:37:28;;;;;;;15.00;1.70;;;;;;;;;;4970897;28;20027;-69
2022/02/07 14:39:54;;;;;;;7.72;1.60;;;;;;;;;;4963284;28;20114;-68
2022/02/07 14:42:20;;;;;;;8.48;1.90;;;;;;;;;;4966867;28;20097;-69
2022/02/07 14:44:59;;;;;;;6.88;1.52;;;;;;;;;;4967209;28;20028;-69
2022/02/07 14:50:15;;;;;;;9.48;1.88;;;;;;;;;;4950656;28;20085;-67
2022/02/07 14:52:41;;;;;;;10.38;1.88;;;;;;;;;;4982867;28;20579;-67
2022/02/07 14:55:08;;;;;;;19.05;1.50;;;;;;;;;;4989080;28;20401;-67
2022/02/07 14:57:34;;;;;;;18.55;1.50;;;;;;;;;;4989903;28;20026;-67
2022/02/07 15:00:00;;;;;;;9.80;1.55;;;;;;;;;;4989702;28;20164;-68
2022/02/07 15:02:26;;;;;;;9.23;1.30;;;;;;;;;;4991379;28;20551;-68
2022/02/07 15:04:53;;;;;;;10.02;1.60;;;;;;;;;;4996366;28;20041;-68
2022/02/07 15:07:19;;;;;;;10.35;1.80;;;;;;;;;;4996645;28;20026;-68
2022/02/07 15:09:45;;;;;;;8.13;1.73;;;;;;;;;;4996410;28;20158;-67
2022/02/07 15:12:11;;;;;;;7.88;1.73;;;;;;;;;;4990010;28;20043;-67
2022/02/07 15:14:37;;;;;;;8.15;1.65;;;;;;;;;;4985089;28;20027;-68
2022/02/07 15:17:04;;;;;;;8.98;1.38;;;;;;;;;;4989329;28;20074;-68
2022/02/07 15:19:30;;;;;;;10.35;1.92;;;;;;;;;;4986889;28;20029;-68
2022/02/07 15:21:56;;;;;;;5.63;1.60;;;;;;;;;;4987743;28;20030;-69
2022/02/07 15:24:24;;;;;;;10.15;2.00;;;;;;;;;;4983872;28;20411;-68
2022/02/07 15:26:50;;;;;;;9.48;1.20;;;;;;;;;;4995438;28;20066;-68
2022/02/07 15:29:17;;;;;;;12.65;1.75;;;;;;;;;;4995839;28;20516;-67
2022/02/07 15:31:47;;;;;;;14.02;1.65;;;;;;;;;;4995318;28;20014;-68
2022/02/07 15:34:13;;;;;;;5.72;1.60;;;;;;;;;;4995841;28;20121;-68
2022/02/07 15:36:39;;;;;;;12.27;1.65;;;;;;;;;;4995644;28;20113;-66
2022/02/07 15:39:08;;;;;;;5.97;1.70;;;;;;;;;;4988262;28;20386;-67
2022/02/07 15:41:35;;;;;;;9.18;1.63;;;;;;;;;;4984749;28;20031;-67
2022/02/07 15:44:01;;;;;;;12.15;1.90;;;;;;;;;;4983864;28;20470;-67
2022/02/07 15:46:29;;;;;;;9.38;1.52;;;;;;;;;;4984078;28;20121;-66
2022/02/07 15:48:55;;;;;;;7.75;2.00;;;;;;;;;;4985288;28;20054;-68
2022/02/07 15:51:21;;;;;;;9.00;1.75;;;;;;;;;;4963651;28;20039;-68
2022/02/07 15:53:48;;;;;;;15.15;3.00;;;;;;;;;;4968173;28;20050;-68
2022/02/07 15:56:14;;;;;;;13.35;2.30;;;;;;;;;;4966563;28;20046;-68
2022/02/07 15:58:41;;;;;;;7.28;2.50;;;;;;;;;;4969542;28;20019;-68
2022/02/07 16:01:08;;;;;;;7.15;2.00;;;;;;;;;;4970842;28;20023;-69
2022/02/07 16:03:34;;;;;;;11.38;1.73;;;;;;;;;;4953038;28;20034;-68
2022/02/07 16:06:01;;;;;;;5.57;2.17;;;;;;;;;;4968527;28;20035;-69
2022/02/07 16:08:28;;;;;;;11.20;2.38;;;;;;;;;;4975472;28;20023;-69
2022/02/07 16:10:54;;;;;;;7.18;2.42;;;;;;;;;;4969281;28;20586;-68
2022/02/07 16:13:22;;;;;;;10.77;2.08;;;;;;;;;;4966847;28;20035;-68
2022/02/07 16:15:49;;;;;;;8.93;2.40;;;;;;;;;;4969269;28;20471;-68
2022/02/07 16:18:17;;;;;;;9.57;1.83;;;;;;;;;;4967605;28;20038;-67
2022/02/07 16:20:44;;;;;;;11.77;2.60;;;;;;;;;;4964368;28;20019;-68
2022/02/07 16:23:12;;;;;;;8.70;2.22;;;;;;;;;;4947478;28;20031;-68
2022/02/07 16:25:39;;;;;;;11.93;2.38;;;;;;;;;;4987102;28;20153;-68
2022/02/07 16:28:06;;;;;;;13.70;2.38;;;;;;;;;;4970345;28;20038;-68
2022/02/07 16:30:32;;;;;;;10.18;1.77;;;;;;;;;;4975551;28;20026;-68
2022/02/07 16:32:58;;;;;;;7.90;1.92;;;;;;;;;;4975384;28;20113;-68
2022/02/07 16:35:24;;;;;;;6.80;1.85;;;;;;;;;;4975456;28;20030;-68
2022/02/07 16:37:50;;;;;;;11.85;2.00;;;;;;;;;;4975085;28;20027;-68
2022/02/07 16:40:16;;;;;;;17.63;2.22;;;;;;;;;;4977271;28;20019;-68
2022/02/07 16:42:42;;;;;;;12.55;1.85;;;;;;;;;;4976382;28;20033;-68
2022/02/07 16:45:20;;;;;;;7.45;1.80;;;;;;;;;;4973891;28;20035;-69
2022/02/07 16:47:48;;;;;;;7.95;1.88;;;;;;;;;;4974976;28;20034;-68
2022/02/07 16:50:14;;;;;;;9.48;1.88;;;;;;;;;;4988463;28;20065;-72
2022/02/07 16:52:41;;;;;;;6.97;1.70;;;;;;;;;;4994607;28;20524;-71
2022/02/07 16:55:07;;;;;;;8.73;1.70;;;;;;;;;;4993338;28;20022;-68
2022/02/07 16:57:33;;;;;;;7.63;1.75;;;;;;;;;;4994558;28;20030;-68
2022/02/07 16:59:59;;;;;;;6.80;1.63;;;;;;;;;;4980858;28;20033;-68
2022/02/07 17:02:26;;;;;;;6.03;1.55;;;;;;;;;;4981363;28;20046;-68
2022/02/07 17:04:53;;;;;;;6.40;1.55;;;;;;;;;;4983570;28;20027;-67
2022/02/07 17:07:20;;;;;;;7.38;1.63;;;;;;;;;;4979693;28;20347;-67
2022/02/07 17:09:46;;;;;;;11.82;1.70;;;;;;;;;;4985063;28;20116;-68
2022/02/07 17:12:12;;;;;;;4.97;1.23;;;;;;;;;;4994182;28;20058;-69
2022/02/07 17:14:39;;;;;;;7.57;1.70;;;;;;;;;;4994539;28;20038;-68
2022/02/07 17:17:11;;;;;;;7.90;1.77;;;;;;;;;;4994386;28;20034;-69
2022/02/07 17:19:36;;;;;;;6.77;1.90;;;;;;;;;;4994559;28;20022;-72
2022/02/07 17:22:03;;;;;;;9.98;1.98;;;;;;;;;;4979850;28;20046;-71
2022/02/07 17:24:30;;;;;;;5.97;2.08;;;;;;;;;;4991631;28;20101;-70